sensor_id;sensor_type;location;lat;lon;timestamp;P1;durP1;ratioP1;P2;durP2;ratioP2
1949;SDS011;975;48.760;9.152;2023-08-01T00:02:23;5.10;;;1.90;;
1949;SDS011;975;48.760;9.152;2023-08-01T00:04:52;5.25;;;2.00;;
1949;SDS011;975;48.760;9.152;2023-08-01T00:07:20;4.97;;;2.30;;
1949;SDS011;975;48.760;9.152;2023-08-01T00:09:47;5.55;;;1.80;;
1949;SDS011;975;48.760;9.152;2023-08-01T00:12:15;3.75;;;1.80;;
1949;SDS011;975;48.760;9.152;2023-08-01T00:14:44;3.88;;;1.98;;
1949;SDS011;975;48.760;9.152;2023-08-01T00:17:12;5.25;;;2.30;;
1949;SDS011;975;48.760;9.152;2023-08-01T00:19:39;6.18;;;1.95;;
1949;SDS011;975;48.760;9.152;2023-08-01T00:22:08;4.97;;;2.00;;
1949;SDS011;975;48.760;9.152;2023-08-01T00:24:36;4.05;;;1.92;;
1949;SDS011;975;48.760;9.152;2023-08-01T00:27:04;5.20;;;2.13;;
1949;SDS011;975;48.760;9.152;2023-08-01T00:32:01;3.28;;;2.08;;
1949;SDS011;975;48.760;9.152;2023-08-01T00:34:29;4.28;;;2.20;;
1949;SDS011;975;48.760;9.152;2023-08-01T00:36:56;4.68;;;2.22;;
1949;SDS011;975;48.760;9.152;2023-08-01T00:39:25;6.55;;;2.10;;
1949;SDS011;975;48.760;9.152;2023-08-01T00:41:53;7.18;;;1.95;;
1949;SDS011;975;48.760;9.152;2023-08-01T00:44:20;3.28;;;2.00;;
1949;SDS011;975;48.760;9.152;2023-08-01T00:46:47;4.97;;;1.92;;
1949;SDS011;975;48.760;9.152;2023-08-01T00:49:15;5.63;;;2.45;;
1949;SDS011;975;48.760;9.152;2023-08-01T00:51:42;6.28;;;2.10;;
1949;SDS011;975;48.760;9.152;2023-08-01T00:54:10;6.03;;;2.78;;
1949;SDS011;975;48.760;9.152;2023-08-01T00:56:39;2.75;;;2.00;;
1949;SDS011;975;48.760;9.152;2023-08-01T00:59:07;5.28;;;2.58;;
1949;SDS011;975;48.760;9.152;2023-08-01T01:01:34;3.67;;;2.03;;
1949;SDS011;975;48.760;9.152;2023-08-01T01:04:02;4.18;;;1.65;;
1949;SDS011;975;48.760;9.152;2023-08-01T01:06:31;4.68;;;1.80;;
1949;SDS011;975;48.760;9.152;2023-08-01T01:11:27;3.50;;;2.45;;
1949;SDS011;975;48.760;9.152;2023-08-01T01:13:56;5.07;;;2.42;;
1949;SDS011;975;48.760;9.152;2023-08-01T01:16:24;3.47;;;1.63;;
1949;SDS011;975;48.760;9.152;2023-08-01T01:18:51;3.42;;;1.67;;
1949;SDS011;975;48.760;9.152;2023-08-01T01:21:20;5.80;;;1.90;;
1949;SDS011;975;48.760;9.152;2023-08-01T01:23:47;4.85;;;2.10;;
1949;SDS011;975;48.760;9.152;2023-08-01T01:26:16;4.70;;;2.42;;
1949;SDS011;975;48.760;9.152;2023-08-01T01:28:46;4.72;;;2.17;;
1949;SDS011;975;48.760;9.152;2023-08-01T01:31:14;5.13;;;2.17;;
1949;SDS011;975;48.760;9.152;2023-08-01T01:33:42;5.72;;;2.17;;
1949;SDS011;975;48.760;9.152;2023-08-01T01:36:10;3.83;;;2.17;;
1949;SDS011;975;48.760;9.152;2023-08-01T01:38:38;3.63;;;1.85;;
1949;SDS011;975;48.760;9.152;2023-08-01T01:41:06;3.72;;;2.05;;
1949;SDS011;975;48.760;9.152;2023-08-01T01:43:33;4.85;;;1.75;;
1949;SDS011;975;48.760;9.152;2023-08-01T01:46:01;4.60;;;2.13;;
1949;SDS011;975;48.760;9.152;2023-08-01T01:48:28;4.15;;;2.05;;
1949;SDS011;975;48.760;9.152;2023-08-01T01:50:56;4.10;;;2.35;;
1949;SDS011;975;48.760;9.152;2023-08-01T01:53:23;4.97;;;1.88;;
1949;SDS011;975;48.760;9.152;2023-08-01T01:55:52;4.03;;;1.92;;
1949;SDS011;975;48.760;9.152;2023-08-01T01:58:19;3.80;;;2.55;;
1949;SDS011;975;48.760;9.152;2023-08-01T02:00:46;3.50;;;2.15;;
1949;SDS011;975;48.760;9.152;2023-08-01T02:03:15;4.45;;;2.13;;
1949;SDS011;975;48.760;9.152;2023-08-01T02:05:42;4.15;;;2.17;;
1949;SDS011;975;48.760;9.152;2023-08-01T02:08:11;3.97;;;2.33;;
1949;SDS011;975;48.760;9.152;2023-08-01T02:10:39;5.07;;;2.20;;
1949;SDS011;975;48.760;9.152;2023-08-01T02:13:07;4.40;;;2.08;;
1949;SDS011;975;48.760;9.152;2023-08-01T02:15:35;5.00;;;2.13;;
1949;SDS011;975;48.760;9.152;2023-08-01T02:18:02;3.65;;;2.28;;
1949;SDS011;975;48.760;9.152;2023-08-01T02:20:30;4.07;;;2.00;;
1949;SDS011;975;48.760;9.152;2023-08-01T02:22:57;2.83;;;2.10;;
1949;SDS011;975;48.760;9.152;2023-08-01T02:25:25;5.97;;;2.30;;
1949;SDS011;975;48.760;9.152;2023-08-01T02:27:52;3.33;;;2.05;;
1949;SDS011;975;48.760;9.152;2023-08-01T02:30:21;6.03;;;2.30;;
1949;SDS011;975;48.760;9.152;2023-08-01T02:32:49;3.63;;;2.10;;
1949;SDS011;975;48.760;9.152;2023-08-01T02:35:16;3.20;;;1.98;;
1949;SDS011;975;48.760;9.152;2023-08-01T02:37:43;4.97;;;1.95;;
1949;SDS011;975;48.760;9.152;2023-08-01T02:40:11;4.82;;;1.90;;
1949;SDS011;975;48.760;9.152;2023-08-01T02:42:39;3.72;;;2.03;;
1949;SDS011;975;48.760;9.152;2023-08-01T02:45:07;4.15;;;2.47;;
1949;SDS011;975;48.760;9.152;2023-08-01T02:47:36;4.85;;;2.35;;
1949;SDS011;975;48.760;9.152;2023-08-01T02:50:03;3.45;;;1.80;;
1949;SDS011;975;48.760;9.152;2023-08-01T02:52:31;4.38;;;2.22;;
1949;SDS011;975;48.760;9.152;2023-08-01T02:54:58;5.38;;;2.25;;
1949;SDS011;975;48.760;9.152;2023-08-01T02:57:26;2.95;;;1.65;;
1949;SDS011;975;48.760;9.152;2023-08-01T02:59:53;4.57;;;2.22;;
1949;SDS011;975;48.760;9.152;2023-08-01T03:02:21;6.65;;;2.08;;
1949;SDS011;975;48.760;9.152;2023-08-01T03:04:50;4.40;;;1.80;;
1949;SDS011;975;48.760;9.152;2023-08-01T03:07:17;5.53;;;2.33;;
1949;SDS011;975;48.760;9.152;2023-08-01T03:09:44;3.78;;;2.30;;
1949;SDS011;975;48.760;9.152;2023-08-01T03:12:12;3.90;;;2.30;;
1949;SDS011;975;48.760;9.152;2023-08-01T03:14:39;2.70;;;1.80;;
1949;SDS011;975;48.760;9.152;2023-08-01T03:17:08;3.60;;;2.22;;
1949;SDS011;975;48.760;9.152;2023-08-01T03:19:36;3.00;;;1.95;;
1949;SDS011;975;48.760;9.152;2023-08-01T03:22:05;3.35;;;1.95;;
1949;SDS011;975;48.760;9.152;2023-08-01T03:24:33;6.28;;;2.65;;
1949;SDS011;975;48.760;9.152;2023-08-01T03:27:00;4.43;;;2.35;;
1949;SDS011;975;48.760;9.152;2023-08-01T03:29:28;4.10;;;2.10;;
1949;SDS011;975;48.760;9.152;2023-08-01T03:31:56;4.88;;;1.90;;
1949;SDS011;975;48.760;9.152;2023-08-01T03:34:23;3.53;;;2.20;;
1949;SDS011;975;48.760;9.152;2023-08-01T03:36:52;6.20;;;1.95;;
1949;SDS011;975;48.760;9.152;2023-08-01T03:39:21;4.07;;;1.98;;
1949;SDS011;975;48.760;9.152;2023-08-01T03:41:48;3.30;;;2.22;;
1949;SDS011;975;48.760;9.152;2023-08-01T03:44:15;4.45;;;2.05;;
1949;SDS011;975;48.760;9.152;2023-08-01T03:46:43;4.35;;;1.92;;
1949;SDS011;975;48.760;9.152;2023-08-01T03:49:11;4.70;;;2.63;;
1949;SDS011;975;48.760;9.152;2023-08-01T03:51:38;5.78;;;2.25;;
1949;SDS011;975;48.760;9.152;2023-08-01T03:54:06;4.65;;;1.80;;
1949;SDS011;975;48.760;9.152;2023-08-01T03:56:34;5.65;;;2.13;;
1949;SDS011;975;48.760;9.152;2023-08-01T03:59:03;4.80;;;2.33;;
1949;SDS011;975;48.760;9.152;2023-08-01T04:01:31;3.97;;;2.33;;
1949;SDS011;975;48.760;9.152;2023-08-01T04:03:58;3.25;;;1.90;;
1949;SDS011;975;48.760;9.152;2023-08-01T04:06:26;6.30;;;2.00;;
1949;SDS011;975;48.760;9.152;2023-08-01T04:08:53;3.22;;;2.25;;
1949;SDS011;975;48.760;9.152;2023-08-01T04:11:22;3.40;;;1.92;;
1949;SDS011;975;48.760;9.152;2023-08-01T04:13:50;3.33;;;1.70;;
1949;SDS011;975;48.760;9.152;2023-08-01T04:16:18;6.43;;;2.05;;
1949;SDS011;975;48.760;9.152;2023-08-01T04:18:45;2.72;;;1.73;;
1949;SDS011;975;48.760;9.152;2023-08-01T04:21:13;3.97;;;2.83;;
1949;SDS011;975;48.760;9.152;2023-08-01T04:23:41;3.22;;;1.90;;
1949;SDS011;975;48.760;9.152;2023-08-01T04:26:08;2.13;;;1.30;;
1949;SDS011;975;48.760;9.152;2023-08-01T04:28:36;4.57;;;1.95;;
1949;SDS011;975;48.760;9.152;2023-08-01T04:31:05;3.70;;;1.70;;
1949;SDS011;975;48.760;9.152;2023-08-01T04:33:32;3.75;;;1.73;;
1949;SDS011;975;48.760;9.152;2023-08-01T04:36:00;4.15;;;1.90;;
1949;SDS011;975;48.760;9.152;2023-08-01T04:38:28;3.90;;;1.90;;
1949;SDS011;975;48.760;9.152;2023-08-01T04:40:55;7.43;;;1.73;;
1949;SDS011;975;48.760;9.152;2023-08-01T04:43:23;4.28;;;1.60;;
1949;SDS011;975;48.760;9.152;2023-08-01T04:45:50;3.35;;;1.90;;
1949;SDS011;975;48.760;9.152;2023-08-01T04:48:19;2.88;;;1.55;;
1949;SDS011;975;48.760;9.152;2023-08-01T04:50:47;2.75;;;1.58;;
1949;SDS011;975;48.760;9.152;2023-08-01T04:53:14;3.00;;;1.70;;
1949;SDS011;975;48.760;9.152;2023-08-01T04:55:41;3.42;;;1.67;;
1949;SDS011;975;48.760;9.152;2023-08-01T04:58:09;4.55;;;2.05;;
1949;SDS011;975;48.760;9.152;2023-08-01T05:00:36;3.30;;;1.80;;
1949;SDS011;975;48.760;9.152;2023-08-01T05:03:04;5.10;;;1.60;;
1949;SDS011;975;48.760;9.152;2023-08-01T05:05:33;4.60;;;1.75;;
1949;SDS011;975;48.760;9.152;2023-08-01T05:08:00;5.00;;;1.50;;
1949;SDS011;975;48.760;9.152;2023-08-01T05:10:28;2.65;;;1.60;;
1949;SDS011;975;48.760;9.152;2023-08-01T05:12:55;4.45;;;2.15;;
1949;SDS011;975;48.760;9.152;2023-08-01T05:15:22;3.67;;;1.77;;
1949;SDS011;975;48.760;9.152;2023-08-01T05:17:52;3.67;;;1.73;;
1949;SDS011;975;48.760;9.152;2023-08-01T05:20:21;3.63;;;1.75;;
1949;SDS011;975;48.760;9.152;2023-08-01T05:22:49;5.55;;;2.00;;
1949;SDS011;975;48.760;9.152;2023-08-01T05:25:17;2.95;;;1.73;;
1949;SDS011;975;48.760;9.152;2023-08-01T05:27:44;4.82;;;2.20;;
1949;SDS011;975;48.760;9.152;2023-08-01T05:30:12;6.30;;;2.03;;
1949;SDS011;975;48.760;9.152;2023-08-01T05:32:39;4.95;;;1.90;;
1949;SDS011;975;48.760;9.152;2023-08-01T05:35:09;3.83;;;2.20;;
1949;SDS011;975;48.760;9.152;2023-08-01T05:37:36;6.80;;;2.08;;
1949;SDS011;975;48.760;9.152;2023-08-01T05:40:06;3.33;;;1.90;;
1949;SDS011;975;48.760;9.152;2023-08-01T05:42:33;6.57;;;2.15;;
1949;SDS011;975;48.760;9.152;2023-08-01T05:45:01;12.00;;;2.65;;
1949;SDS011;975;48.760;9.152;2023-08-01T05:47:29;5.85;;;2.63;;
1949;SDS011;975;48.760;9.152;2023-08-01T05:49:56;5.63;;;2.58;;
1949;SDS011;975;48.760;9.152;2023-08-01T05:52:24;6.22;;;2.50;;
1949;SDS011;975;48.760;9.152;2023-08-01T05:54:51;7.65;;;2.30;;
1949;SDS011;975;48.760;9.152;2023-08-01T05:57:20;4.93;;;1.88;;
1949;SDS011;975;48.760;9.152;2023-08-01T05:59:48;5.72;;;2.20;;
1949;SDS011;975;48.760;9.152;2023-08-01T06:02:15;5.97;;;2.53;;
1949;SDS011;975;48.760;9.152;2023-08-01T06:04:43;6.47;;;2.45;;
1949;SDS011;975;48.760;9.152;2023-08-01T06:07:10;3.60;;;2.28;;
1949;SDS011;975;48.760;9.152;2023-08-01T06:09:38;4.03;;;2.25;;
1949;SDS011;975;48.760;9.152;2023-08-01T06:12:05;8.30;;;2.33;;
1949;SDS011;975;48.760;9.152;2023-08-01T06:14:34;3.85;;;2.13;;
1949;SDS011;975;48.760;9.152;2023-08-01T06:17:02;3.78;;;1.67;;
1949;SDS011;975;48.760;9.152;2023-08-01T06:19:29;5.03;;;2.17;;
1949;SDS011;975;48.760;9.152;2023-08-01T06:21:57;6.43;;;2.30;;
1949;SDS011;975;48.760;9.152;2023-08-01T06:24:25;4.45;;;2.80;;
1949;SDS011;975;48.760;9.152;2023-08-01T06:26:53;5.38;;;2.20;;
1949;SDS011;975;48.760;9.152;2023-08-01T06:29:20;4.40;;;2.35;;
1949;SDS011;975;48.760;9.152;2023-08-01T06:31:49;7.88;;;2.35;;
1949;SDS011;975;48.760;9.152;2023-08-01T06:34:17;4.63;;;2.38;;
1949;SDS011;975;48.760;9.152;2023-08-01T06:36:44;4.63;;;2.30;;
1949;SDS011;975;48.760;9.152;2023-08-01T06:39:12;4.15;;;1.95;;
1949;SDS011;975;48.760;9.152;2023-08-01T06:41:39;7.88;;;3.20;;
1949;SDS011;975;48.760;9.152;2023-08-01T06:44:07;6.43;;;3.20;;
1949;SDS011;975;48.760;9.152;2023-08-01T06:46:34;6.97;;;2.80;;
1949;SDS011;975;48.760;9.152;2023-08-01T06:49:03;7.72;;;3.38;;
1949;SDS011;975;48.760;9.152;2023-08-01T06:51:31;9.07;;;3.55;;
1949;SDS011;975;48.760;9.152;2023-08-01T06:53:59;6.78;;;2.88;;
1949;SDS011;975;48.760;9.152;2023-08-01T06:56:26;7.45;;;2.78;;
1949;SDS011;975;48.760;9.152;2023-08-01T06:58:54;9.52;;;3.15;;
1949;SDS011;975;48.760;9.152;2023-08-01T07:01:21;9.52;;;3.60;;
1949;SDS011;975;48.760;9.152;2023-08-01T07:03:48;6.60;;;2.78;;
1949;SDS011;975;48.760;9.152;2023-08-01T07:06:19;6.65;;;2.70;;
1949;SDS011;975;48.760;9.152;2023-08-01T07:08:46;7.85;;;3.17;;
1949;SDS011;975;48.760;9.152;2023-08-01T07:11:14;9.30;;;4.28;;
1949;SDS011;975;48.760;9.152;2023-08-01T07:13:41;6.75;;;3.20;;
1949;SDS011;975;48.760;9.152;2023-08-01T07:16:09;7.22;;;3.33;;
1949;SDS011;975;48.760;9.152;2023-08-01T07:18:36;9.02;;;3.65;;
1949;SDS011;975;48.760;9.152;2023-08-01T07:21:04;6.93;;;2.95;;
1949;SDS011;975;48.760;9.152;2023-08-01T07:23:33;8.70;;;3.17;;
1949;SDS011;975;48.760;9.152;2023-08-01T07:26:01;7.25;;;3.67;;
1949;SDS011;975;48.760;9.152;2023-08-01T07:28:29;7.10;;;3.35;;
1949;SDS011;975;48.760;9.152;2023-08-01T07:30:59;5.03;;;2.92;;
1949;SDS011;975;48.760;9.152;2023-08-01T07:33:27;5.80;;;3.03;;
1949;SDS011;975;48.760;9.152;2023-08-01T07:35:55;4.75;;;2.70;;
1949;SDS011;975;48.760;9.152;2023-08-01T07:38:22;5.82;;;3.03;;
1949;SDS011;975;48.760;9.152;2023-08-01T07:40:51;6.20;;;3.22;;
1949;SDS011;975;48.760;9.152;2023-08-01T07:43:19;7.70;;;3.20;;
1949;SDS011;975;48.760;9.152;2023-08-01T07:45:46;5.00;;;2.50;;
1949;SDS011;975;48.760;9.152;2023-08-01T07:48:15;6.00;;;2.85;;
1949;SDS011;975;48.760;9.152;2023-08-01T07:50:43;7.78;;;2.78;;
1949;SDS011;975;48.760;9.152;2023-08-01T07:53:10;4.32;;;2.20;;
1949;SDS011;975;48.760;9.152;2023-08-01T07:55:38;5.30;;;2.50;;
1949;SDS011;975;48.760;9.152;2023-08-01T07:58:06;5.00;;;1.92;;
1949;SDS011;975;48.760;9.152;2023-08-01T08:00:34;5.95;;;2.55;;
1949;SDS011;975;48.760;9.152;2023-08-01T08:03:01;4.90;;;2.30;;
1949;SDS011;975;48.760;9.152;2023-08-01T08:05:31;7.43;;;2.22;;
1949;SDS011;975;48.760;9.152;2023-08-01T08:07:58;6.15;;;2.08;;
1949;SDS011;975;48.760;9.152;2023-08-01T08:10:26;4.53;;;1.85;;
1949;SDS011;975;48.760;9.152;2023-08-01T08:12:53;3.20;;;1.80;;
1949;SDS011;975;48.760;9.152;2023-08-01T08:15:22;3.42;;;2.05;;
1949;SDS011;975;48.760;9.152;2023-08-01T08:17:51;3.97;;;2.00;;
1949;SDS011;975;48.760;9.152;2023-08-01T08:20:18;2.85;;;1.63;;
1949;SDS011;975;48.760;9.152;2023-08-01T08:22:46;2.35;;;1.45;;
1949;SDS011;975;48.760;9.152;2023-08-01T08:25:13;2.30;;;1.58;;
1949;SDS011;975;48.760;9.152;2023-08-01T08:27:41;2.97;;;1.33;;
1949;SDS011;975;48.760;9.152;2023-08-01T08:30:09;2.00;;;1.20;;
1949;SDS011;975;48.760;9.152;2023-08-01T08:32:38;3.45;;;1.60;;
1949;SDS011;975;48.760;9.152;2023-08-01T08:35:05;2.10;;;1.50;;
1949;SDS011;975;48.760;9.152;2023-08-01T08:37:33;2.40;;;1.20;;
1949;SDS011;975;48.760;9.152;2023-08-01T08:40:02;4.38;;;1.67;;
1949;SDS011;975;48.760;9.152;2023-08-01T08:42:33;3.10;;;1.30;;
1949;SDS011;975;48.760;9.152;2023-08-01T08:47:28;5.85;;;1.85;;
1949;SDS011;975;48.760;9.152;2023-08-01T08:49:59;2.22;;;1.45;;
1949;SDS011;975;48.760;9.152;2023-08-01T08:52:27;3.22;;;1.63;;
1949;SDS011;975;48.760;9.152;2023-08-01T08:54:55;3.92;;;1.65;;
1949;SDS011;975;48.760;9.152;2023-08-01T08:57:24;2.55;;;1.30;;
1949;SDS011;975;48.760;9.152;2023-08-01T08:59:52;2.50;;;1.40;;
1949;SDS011;975;48.760;9.152;2023-08-01T09:02:19;3.72;;;1.60;;
1949;SDS011;975;48.760;9.152;2023-08-01T09:04:48;3.25;;;1.70;;
1949;SDS011;975;48.760;9.152;2023-08-01T09:07:16;4.70;;;1.60;;
1949;SDS011;975;48.760;9.152;2023-08-01T09:09:46;3.40;;;1.20;;
1949;SDS011;975;48.760;9.152;2023-08-01T09:12:13;2.42;;;1.42;;
1949;SDS011;975;48.760;9.152;2023-08-01T09:14:41;3.55;;;1.33;;
1949;SDS011;975;48.760;9.152;2023-08-01T09:17:09;2.78;;;1.35;;
1949;SDS011;975;48.760;9.152;2023-08-01T09:19:37;1.88;;;1.17;;
1949;SDS011;975;48.760;9.152;2023-08-01T09:22:09;2.08;;;1.35;;
1949;SDS011;975;48.760;9.152;2023-08-01T09:24:38;2.08;;;1.13;;
1949;SDS011;975;48.760;9.152;2023-08-01T09:27:06;1.02;;;0.98;;
1949;SDS011;975;48.760;9.152;2023-08-01T09:29:34;2.45;;;1.30;;
1949;SDS011;975;48.760;9.152;2023-08-01T09:32:10;1.98;;;1.10;;
1949;SDS011;975;48.760;9.152;2023-08-01T09:34:38;3.42;;;1.40;;
1949;SDS011;975;48.760;9.152;2023-08-01T09:37:06;2.08;;;1.48;;
1949;SDS011;975;48.760;9.152;2023-08-01T09:39:33;1.27;;;0.90;;
1949;SDS011;975;48.760;9.152;2023-08-01T09:42:02;1.73;;;1.08;;
1949;SDS011;975;48.760;9.152;2023-08-01T09:44:30;1.35;;;0.80;;
1949;SDS011;975;48.760;9.152;2023-08-01T09:46:58;1.42;;;1.00;;
1949;SDS011;975;48.760;9.152;2023-08-01T09:49:26;2.97;;;0.75;;
1949;SDS011;975;48.760;9.152;2023-08-01T09:51:53;2.85;;;0.60;;
1949;SDS011;975;48.760;9.152;2023-08-01T09:54:21;1.23;;;0.60;;
1949;SDS011;975;48.760;9.152;2023-08-01T09:56:49;1.48;;;0.50;;
1949;SDS011;975;48.760;9.152;2023-08-01T09:59:19;1.10;;;0.60;;
1949;SDS011;975;48.760;9.152;2023-08-01T10:01:47;2.85;;;0.57;;
1949;SDS011;975;48.760;9.152;2023-08-01T10:04:18;1.13;;;0.47;;
1949;SDS011;975;48.760;9.152;2023-08-01T10:06:46;0.47;;;0.40;;
1949;SDS011;975;48.760;9.152;2023-08-01T10:09:16;0.30;;;0.30;;
1949;SDS011;975;48.760;9.152;2023-08-01T10:11:44;0.43;;;0.40;;
1949;SDS011;975;48.760;9.152;2023-08-01T10:14:14;0.50;;;0.40;;
1949;SDS011;975;48.760;9.152;2023-08-01T10:16:43;0.32;;;0.32;;
1949;SDS011;975;48.760;9.152;2023-08-01T10:19:12;0.85;;;0.32;;
1949;SDS011;975;48.760;9.152;2023-08-01T10:21:41;0.80;;;0.50;;
1949;SDS011;975;48.760;9.152;2023-08-01T10:24:08;0.20;;;0.20;;
1949;SDS011;975;48.760;9.152;2023-08-01T10:26:37;0.82;;;0.40;;
1949;SDS011;975;48.760;9.152;2023-08-01T10:29:04;1.10;;;0.25;;
1949;SDS011;975;48.760;9.152;2023-08-01T10:31:31;1.75;;;0.43;;
1949;SDS011;975;48.760;9.152;2023-08-01T10:34:13;0.30;;;0.20;;
1949;SDS011;975;48.760;9.152;2023-08-01T10:36:40;0.30;;;0.30;;
1949;SDS011;975;48.760;9.152;2023-08-01T10:39:08;0.57;;;0.30;;
1949;SDS011;975;48.760;9.152;2023-08-01T10:41:36;0.57;;;0.43;;
1949;SDS011;975;48.760;9.152;2023-08-01T10:44:05;0.82;;;0.50;;
1949;SDS011;975;48.760;9.152;2023-08-01T10:46:45;1.75;;;0.55;;
1949;SDS011;975;48.760;9.152;2023-08-01T10:49:14;0.40;;;0.40;;
1949;SDS011;975;48.760;9.152;2023-08-01T10:51:41;0.88;;;0.20;;
1949;SDS011;975;48.760;9.152;2023-08-01T10:54:19;1.25;;;0.40;;
1949;SDS011;975;48.760;9.152;2023-08-01T10:56:48;0.88;;;0.40;;
1949;SDS011;975;48.760;9.152;2023-08-01T10:59:15;0.57;;;0.30;;
1949;SDS011;975;48.760;9.152;2023-08-01T11:01:44;1.00;;;0.40;;
1949;SDS011;975;48.760;9.152;2023-08-01T11:04:16;0.40;;;0.30;;
1949;SDS011;975;48.760;9.152;2023-08-01T11:06:44;0.30;;;0.30;;
1949;SDS011;975;48.760;9.152;2023-08-01T11:09:15;0.88;;;0.43;;
1949;SDS011;975;48.760;9.152;2023-08-01T11:11:43;1.17;;;0.65;;
1949;SDS011;975;48.760;9.152;2023-08-01T11:14:11;0.73;;;0.40;;
1949;SDS011;975;48.760;9.152;2023-08-01T11:16:40;0.52;;;0.43;;
1949;SDS011;975;48.760;9.152;2023-08-01T11:19:21;0.45;;;0.43;;
1949;SDS011;975;48.760;9.152;2023-08-01T11:21:48;1.52;;;0.55;;
1949;SDS011;975;48.760;9.152;2023-08-01T11:24:17;0.70;;;0.50;;
1949;SDS011;975;48.760;9.152;2023-08-01T11:26:46;0.60;;;0.45;;
1949;SDS011;975;48.760;9.152;2023-08-01T11:29:14;0.40;;;0.30;;
1949;SDS011;975;48.760;9.152;2023-08-01T11:31:46;1.00;;;0.60;;
1949;SDS011;975;48.760;9.152;2023-08-01T11:34:20;0.88;;;0.57;;
1949;SDS011;975;48.760;9.152;2023-08-01T11:36:48;1.52;;;0.60;;
1949;SDS011;975;48.760;9.152;2023-08-01T11:39:15;3.63;;;0.60;;
1949;SDS011;975;48.760;9.152;2023-08-01T11:41:43;0.98;;;0.70;;
1949;SDS011;975;48.760;9.152;2023-08-01T11:44:11;2.00;;;0.68;;
1949;SDS011;975;48.760;9.152;2023-08-01T11:46:38;0.88;;;0.57;;
1949;SDS011;975;48.760;9.152;2023-08-01T11:49:07;0.77;;;0.55;;
1949;SDS011;975;48.760;9.152;2023-08-01T11:51:43;1.95;;;0.70;;
1949;SDS011;975;48.760;9.152;2023-08-01T11:56:38;1.13;;;0.60;;
1949;SDS011;975;48.760;9.152;2023-08-01T11:59:09;1.20;;;0.77;;
1949;SDS011;975;48.760;9.152;2023-08-01T12:01:38;3.13;;;0.60;;
1949;SDS011;975;48.760;9.152;2023-08-01T12:04:05;0.60;;;0.57;;
1949;SDS011;975;48.760;9.152;2023-08-01T12:06:32;0.80;;;0.77;;
1949;SDS011;975;48.760;9.152;2023-08-01T12:09:07;0.70;;;0.57;;
1949;SDS011;975;48.760;9.152;2023-08-01T12:11:35;1.67;;;0.75;;
1949;SDS011;975;48.760;9.152;2023-08-01T12:14:03;0.85;;;0.77;;
1949;SDS011;975;48.760;9.152;2023-08-01T12:16:30;1.75;;;0.65;;
1949;SDS011;975;48.760;9.152;2023-08-01T12:18:58;0.82;;;0.75;;
1949;SDS011;975;48.760;9.152;2023-08-01T12:21:25;2.50;;;1.20;;
1949;SDS011;975;48.760;9.152;2023-08-01T12:23:53;1.08;;;0.60;;
1949;SDS011;975;48.760;9.152;2023-08-01T12:26:22;0.93;;;0.73;;
1949;SDS011;975;48.760;9.152;2023-08-01T12:28:49;0.93;;;0.77;;
1949;SDS011;975;48.760;9.152;2023-08-01T12:31:17;1.15;;;0.80;;
1949;SDS011;975;48.760;9.152;2023-08-01T12:33:45;1.02;;;0.65;;
1949;SDS011;975;48.760;9.152;2023-08-01T12:36:12;1.17;;;0.50;;
1949;SDS011;975;48.760;9.152;2023-08-01T12:38:39;0.98;;;0.60;;
1949;SDS011;975;48.760;9.152;2023-08-01T12:41:07;2.95;;;1.20;;
1949;SDS011;975;48.760;9.152;2023-08-01T12:43:37;3.60;;;1.83;;
1949;SDS011;975;48.760;9.152;2023-08-01T12:46:04;1.73;;;0.50;;
1949;SDS011;975;48.760;9.152;2023-08-01T12:48:31;1.33;;;1.02;;
1949;SDS011;975;48.760;9.152;2023-08-01T12:50:59;1.25;;;0.73;;
1949;SDS011;975;48.760;9.152;2023-08-01T12:53:26;2.58;;;0.73;;
1949;SDS011;975;48.760;9.152;2023-08-01T12:55:54;1.55;;;0.80;;
1949;SDS011;975;48.760;9.152;2023-08-01T12:58:21;1.45;;;0.80;;
1949;SDS011;975;48.760;9.152;2023-08-01T13:00:50;2.10;;;0.60;;
1949;SDS011;975;48.760;9.152;2023-08-01T13:03:17;1.85;;;0.68;;
1949;SDS011;975;48.760;9.152;2023-08-01T13:05:45;2.10;;;0.60;;
1949;SDS011;975;48.760;9.152;2023-08-01T13:08:12;5.80;;;1.00;;
1949;SDS011;975;48.760;9.152;2023-08-01T13:10:40;1.85;;;0.68;;
1949;SDS011;975;48.760;9.152;2023-08-01T13:13:10;1.58;;;0.90;;
1949;SDS011;975;48.760;9.152;2023-08-01T13:15:38;1.00;;;0.70;;
1949;SDS011;975;48.760;9.152;2023-08-01T13:18:07;1.27;;;0.70;;
1949;SDS011;975;48.760;9.152;2023-08-01T13:20:34;0.98;;;0.80;;
1949;SDS011;975;48.760;9.152;2023-08-01T13:23:02;1.65;;;0.73;;
1949;SDS011;975;48.760;9.152;2023-08-01T13:25:29;2.40;;;0.90;;
1949;SDS011;975;48.760;9.152;2023-08-01T13:27:57;1.10;;;0.75;;
1949;SDS011;975;48.760;9.152;2023-08-01T13:30:24;2.00;;;0.90;;
1949;SDS011;975;48.760;9.152;2023-08-01T13:32:52;1.98;;;0.77;;
1949;SDS011;975;48.760;9.152;2023-08-01T13:35:21;1.50;;;0.80;;
1949;SDS011;975;48.760;9.152;2023-08-01T13:37:48;2.80;;;0.80;;
1949;SDS011;975;48.760;9.152;2023-08-01T13:40:16;1.55;;;0.85;;
1949;SDS011;975;48.760;9.152;2023-08-01T13:42:43;0.80;;;0.60;;
1949;SDS011;975;48.760;9.152;2023-08-01T13:45:11;1.85;;;0.95;;
1949;SDS011;975;48.760;9.152;2023-08-01T13:47:38;1.17;;;0.52;;
1949;SDS011;975;48.760;9.152;2023-08-01T13:50:06;1.88;;;0.90;;
1949;SDS011;975;48.760;9.152;2023-08-01T13:52:36;1.30;;;0.80;;
1949;SDS011;975;48.760;9.152;2023-08-01T13:55:03;0.73;;;0.73;;
1949;SDS011;975;48.760;9.152;2023-08-01T13:57:32;1.45;;;0.85;;
1949;SDS011;975;48.760;9.152;2023-08-01T14:00:00;1.20;;;0.82;;
1949;SDS011;975;48.760;9.152;2023-08-01T14:02:28;2.45;;;0.88;;
1949;SDS011;975;48.760;9.152;2023-08-01T14:04:56;1.65;;;1.05;;
1949;SDS011;975;48.760;9.152;2023-08-01T14:07:23;3.58;;;0.82;;
1949;SDS011;975;48.760;9.152;2023-08-01T14:09:52;1.52;;;0.85;;
1949;SDS011;975;48.760;9.152;2023-08-01T14:12:19;2.47;;;1.00;;
1949;SDS011;975;48.760;9.152;2023-08-01T14:14:47;2.13;;;0.93;;
1949;SDS011;975;48.760;9.152;2023-08-01T14:17:16;1.20;;;0.90;;
1949;SDS011;975;48.760;9.152;2023-08-01T14:19:43;1.40;;;0.82;;
1949;SDS011;975;48.760;9.152;2023-08-01T14:22:10;1.42;;;0.90;;
1949;SDS011;975;48.760;9.152;2023-08-01T14:24:38;3.42;;;0.82;;
1949;SDS011;975;48.760;9.152;2023-08-01T14:27:07;1.35;;;0.75;;
1949;SDS011;975;48.760;9.152;2023-08-01T14:29:34;2.00;;;0.77;;
1949;SDS011;975;48.760;9.152;2023-08-01T14:32:02;5.03;;;0.90;;
1949;SDS011;975;48.760;9.152;2023-08-01T14:34:29;1.77;;;0.85;;
1949;SDS011;975;48.760;9.152;2023-08-01T14:36:57;0.60;;;0.50;;
1949;SDS011;975;48.760;9.152;2023-08-01T14:39:24;2.30;;;1.02;;
1949;SDS011;975;48.760;9.152;2023-08-01T14:41:51;0.75;;;0.70;;
1949;SDS011;975;48.760;9.152;2023-08-01T14:44:20;1.08;;;0.60;;
1949;SDS011;975;48.760;9.152;2023-08-01T14:46:48;1.17;;;0.70;;
1949;SDS011;975;48.760;9.152;2023-08-01T14:49:15;1.95;;;0.73;;
1949;SDS011;975;48.760;9.152;2023-08-01T14:51:43;1.08;;;0.93;;
1949;SDS011;975;48.760;9.152;2023-08-01T14:54:10;2.08;;;1.00;;
1949;SDS011;975;48.760;9.152;2023-08-01T14:56:37;1.60;;;0.70;;
1949;SDS011;975;48.760;9.152;2023-08-01T14:59:05;1.48;;;0.70;;
1949;SDS011;975;48.760;9.152;2023-08-01T15:01:34;2.42;;;0.85;;
1949;SDS011;975;48.760;9.152;2023-08-01T15:04:01;1.75;;;1.10;;
1949;SDS011;975;48.760;9.152;2023-08-01T15:06:28;1.55;;;0.75;;
1949;SDS011;975;48.760;9.152;2023-08-01T15:08:56;2.03;;;0.80;;
1949;SDS011;975;48.760;9.152;2023-08-01T15:11:23;0.80;;;0.60;;
1949;SDS011;975;48.760;9.152;2023-08-01T15:13:51;2.20;;;1.30;;
1949;SDS011;975;48.760;9.152;2023-08-01T15:16:18;2.10;;;0.90;;
1949;SDS011;975;48.760;9.152;2023-08-01T15:18:47;1.63;;;0.90;;
1949;SDS011;975;48.760;9.152;2023-08-01T15:21:14;1.65;;;0.70;;
1949;SDS011;975;48.760;9.152;2023-08-01T15:23:42;0.68;;;0.63;;
1949;SDS011;975;48.760;9.152;2023-08-01T15:26:09;1.23;;;0.80;;
1949;SDS011;975;48.760;9.152;2023-08-01T15:28:37;1.48;;;0.63;;
1949;SDS011;975;48.760;9.152;2023-08-01T15:31:05;1.08;;;0.68;;
1949;SDS011;975;48.760;9.152;2023-08-01T15:33:32;1.27;;;0.93;;
1949;SDS011;975;48.760;9.152;2023-08-01T15:36:02;2.78;;;1.42;;
1949;SDS011;975;48.760;9.152;2023-08-01T15:38:30;1.00;;;0.60;;
1949;SDS011;975;48.760;9.152;2023-08-01T15:40:58;8.13;;;0.88;;
1949;SDS011;975;48.760;9.152;2023-08-01T15:43:28;1.45;;;1.10;;
1949;SDS011;975;48.760;9.152;2023-08-01T15:45:56;0.75;;;0.60;;